jueves, 30 de octubre de 2014

[ACCIDENTE] EEUU Beechcraft Super King Air 200


El avión se estrelló en un edificio en la propiedad del aeropuerto al intentar volver a la pista. 

Más de 100 personas, empleados y visitantes, estaban dentro del edificio cuando ocurrió el accidente.

El Departamento de Bomberos de Wichita confirma cuatro personas fallecidas. Otras cinco personas han resultado heridas, y otros cuatro todavía están en paradero desconocido. Los heridos han sido llevados al Hospital St. Francis. 

El avión fue comprado recientemente por Beechcraft Corp. y se dirigía a Mena, Arkansas. El piloto se llamaba Mark Goldstein, piloto y air traffic controller jubilado.

METAR

14:53 UTC / 09:43 local time:
KICT 301453Z 35016KT 10SM FEW150 15/03 A3012 RMK AO2 SLP197 T01500033 53024
Wind 350 degrees at 16 knots; Visibility: 10+ miles; few clouds at 15000 feet AGL; Temperature: 15°C; Dew point: 3°C











Fuentes:
KAKE.com
MSNBC.com

No hay comentarios.:

Publicar un comentario